Time;durP1;ratioP1;P1;durP2;ratioP2;P2;SDS_P1;SDS_P2;PMS_P1;PMS_P2;Temp;Humidity;BMP_temperature;BMP_pressure;BME280_temperature;BME280_humidity;BME280_pressure;Samples;Min_cycle;Max_cycle;Signal;HPM_P1;HPM_P2
2022/05/05 00:02:38;;;;;;;19.63;9.52;;;;;;;10.61;64.41;99440.66;8469202;27;20054;-72
2022/05/05 00:06:39;;;;;;;21.35;9.85;;;;;;;10.59;64.64;99438.25;8508999;27;20074;-72
2022/05/05 00:14:59;;;;;;;21.70;9.65;;;;;;;10.42;65.02;99443.44;8520132;27;20571;-72
2022/05/05 00:19:01;;;;;;;22.00;9.30;;;;;;;10.37;64.92;99444.34;8497772;27;20047;-72
2022/05/05 00:23:02;;;;;;;23.48;10.05;;;;;;;10.30;65.30;99441.25;8497334;27;20047;-72
2022/05/05 00:27:03;;;;;;;22.45;9.25;;;;;;;10.27;65.26;99441.81;8502791;27;20103;-72
2022/05/05 00:31:04;;;;;;;21.35;9.70;;;;;;;10.23;65.20;99438.13;8423337;27;20120;-72
2022/05/05 00:35:05;;;;;;;20.92;10.10;;;;;;;10.18;65.52;99438.22;8498382;27;20054;-72
2022/05/05 00:39:07;;;;;;;19.15;9.63;;;;;;;10.14;65.54;99442.59;8508917;27;20065;-72
2022/05/05 00:43:08;;;;;;;18.77;9.80;;;;;;;10.12;65.72;99445.56;8506611;27;20039;-72
2022/05/05 00:47:14;;;;;;;17.30;9.77;;;;;;;10.10;66.08;99441.56;8498157;27;20053;-72
2022/05/05 00:51:15;;;;;;;19.48;10.65;;;;;;;10.03;66.10;99446.56;8523925;27;20043;-71
2022/05/05 00:55:16;;;;;;;24.25;11.45;;;;;;;9.94;66.26;99437.56;8511177;27;20097;-72
2022/05/05 00:59:19;;;;;;;17.98;10.43;;;;;;;9.91;66.57;99435.44;8480134;27;20039;-72
2022/05/05 01:03:20;;;;;;;18.30;10.63;;;;;;;9.81;66.91;99443.69;8510217;27;20050;-72
2022/05/05 01:07:23;;;;;;;21.17;10.30;;;;;;;9.74;67.52;99439.47;8465193;27;20062;-72
2022/05/05 01:11:24;;;;;;;21.67;10.20;;;;;;;9.69;67.63;99433.38;8495591;27;20044;-71
2022/05/05 01:15:25;;;;;;;27.52;10.98;;;;;;;9.61;67.71;99440.25;8509723;27;20130;-72
2022/05/05 01:19:26;;;;;;;19.95;11.27;;;;;;;9.59;67.74;99437.03;8530362;27;20054;-72
2022/05/05 01:23:27;;;;;;;24.42;11.43;;;;;;;9.53;68.05;99438.19;8521118;27;20070;-71
2022/05/05 01:31:47;;;;;;;21.55;12.38;;;;;;;9.39;68.45;99442.75;8504723;27;20098;-72
2022/05/05 01:35:50;;;;;;;19.55;11.63;;;;;;;9.36;68.54;99443.31;8505788;27;20046;-72
2022/05/05 01:39:51;;;;;;;21.27;12.45;;;;;;;9.30;68.63;99444.50;8511855;27;20062;-72
2022/05/05 01:43:52;;;;;;;27.20;12.43;;;;;;;9.25;68.63;99447.28;8525698;27;20054;-72
2022/05/05 01:47:53;;;;;;;24.05;11.27;;;;;;;9.20;68.81;99455.44;8510976;27;20141;-72
2022/05/05 01:51:54;;;;;;;21.73;12.30;;;;;;;9.17;69.07;99456.00;8502332;27;20070;-71
2022/05/05 01:55:55;;;;;;;24.02;12.07;;;;;;;9.12;69.14;99453.38;8514651;27;20051;-72
2022/05/05 01:59:56;;;;;;;23.83;13.13;;;;;;;9.10;69.23;99455.53;8505355;27;20042;-72
2022/05/05 02:04:00;;;;;;;27.27;12.60;;;;;;;9.06;69.39;99449.94;8509449;27;20042;-71
2022/05/05 02:08:01;;;;;;;22.55;13.40;;;;;;;9.07;69.52;99456.13;8513772;27;20074;-71
2022/05/05 02:12:03;;;;;;;23.02;13.60;;;;;;;9.10;69.76;99466.31;8491581;27;20070;-72
2022/05/05 02:16:04;;;;;;;31.35;13.88;;;;;;;9.01;70.25;99451.91;8520095;27;20047;-72
2022/05/05 02:20:07;;;;;;;25.38;13.95;;;;;;;9.01;69.98;99457.28;8495554;27;20070;-71
2022/05/05 02:24:08;;;;;;;20.83;14.35;;;;;;;8.99;70.13;99464.88;8513616;27;20043;-72
2022/05/05 02:28:08;;;;;;;23.75;13.35;;;;;;;9.00;70.04;99450.28;8520835;27;20187;-71
2022/05/05 02:32:09;;;;;;;25.98;14.63;;;;;;;9.00;69.97;99444.91;8518605;27;20035;-72
2022/05/05 02:40:30;;;;;;;23.75;14.40;;;;;;;8.90;70.49;99443.94;8498610;27;20039;-71
2022/05/05 02:44:31;;;;;;;26.42;14.85;;;;;;;8.83;70.56;99440.81;8518175;27;20051;-72
2022/05/05 02:48:32;;;;;;;28.67;14.52;;;;;;;8.81;70.76;99448.38;8460175;27;20043;-71
2022/05/05 02:52:33;;;;;;;35.50;16.42;;;;;;;8.69;71.24;99445.31;8457151;28;20052;-72
2022/05/05 02:56:34;;;;;;;30.30;14.75;;;;;;;8.66;71.58;99443.19;8516518;27;20403;-72
2022/05/05 03:00:35;;;;;;;27.85;14.68;;;;;;;8.69;71.66;99445.31;8511839;27;20047;-71
2022/05/05 03:04:36;;;;;;;27.50;14.43;;;;;;;8.62;71.84;99444.84;8532550;27;20047;-72
2022/05/05 03:08:37;;;;;;;30.83;16.50;;;;;;;8.51;72.35;99447.97;8505013;27;20089;-72
2022/05/05 03:12:38;;;;;;;34.60;16.92;;;;;;;8.51;72.23;99451.44;8499872;27;20058;-72
2022/05/05 03:16:39;;;;;;;33.42;17.27;;;;;;;8.55;72.15;99459.75;8459324;27;20055;-72
2022/05/05 03:20:40;;;;;;;35.92;16.45;;;;;;;8.55;72.20;99443.59;8462851;27;20047;-72
2022/05/05 03:24:40;;;;;;;29.50;17.00;;;;;;;8.59;72.57;99447.31;8500136;27;20114;-71
2022/05/05 03:28:41;;;;;;;29.33;16.88;;;;;;;8.55;72.50;99455.16;8513555;27;20043;-72
2022/05/05 03:32:42;;;;;;;33.65;18.25;;;;;;;8.56;72.25;99456.78;8492652;27;20138;-71
2022/05/05 03:36:43;;;;;;;27.38;16.88;;;;;;;8.56;72.46;99454.09;8527912;27;20058;-72
2022/05/05 03:40:45;;;;;;;33.13;18.88;;;;;;;8.57;72.46;99458.34;8533042;27;20553;-71
2022/05/05 03:44:46;;;;;;;28.70;18.50;;;;;;;8.58;72.46;99454.59;8479706;27;20393;-72
2022/05/05 03:48:47;;;;;;;32.05;18.08;;;;;;;8.58;72.51;99459.97;8467939;27;20130;-72
2022/05/05 03:52:48;;;;;;;43.15;19.88;;;;;;;8.56;72.74;99456.78;8502654;27;20055;-71
2022/05/05 03:56:51;;;;;;;36.47;19.08;;;;;;;8.58;73.13;99459.97;8518798;27;20142;-71
2022/05/05 04:00:52;;;;;;;33.25;20.02;;;;;;;8.62;73.00;99461.00;8526130;27;20047;-72
2022/05/05 04:04:53;;;;;;;35.88;20.67;;;;;;;8.68;73.01;99465.22;8481716;27;20059;-72
2022/05/05 04:08:54;;;;;;;39.22;21.85;;;;;;;8.77;72.83;99468.91;8498090;27;20070;-72
2022/05/05 04:12:55;;;;;;;37.10;21.23;;;;;;;8.87;72.67;99479.56;8505666;27;20052;-72
2022/05/05 04:16:56;;;;;;;44.47;24.58;;;;;;;8.99;72.73;99478.34;8510060;27;20496;-72
2022/05/05 04:20:56;;;;;;;54.15;28.90;;;;;;;9.14;72.71;99472.75;8512357;27;20130;-72
2022/05/05 04:24:57;;;;;;;49.55;27.58;;;;;;;9.29;72.62;99476.03;8504190;27;20039;-72
2022/05/05 04:28:58;;;;;;;49.42;28.50;;;;;;;9.42;72.40;99474.50;8500000;27;20053;-72
2022/05/05 04:33:00;;;;;;;45.65;27.88;;;;;;;9.54;72.17;99477.56;8481396;27;20047;-72
2022/05/05 04:37:01;;;;;;;50.88;28.42;;;;;;;9.68;72.12;99481.09;8510753;27;20047;-72
2022/05/05 04:41:02;;;;;;;47.95;26.15;;;;;;;9.82;72.40;99488.47;8496633;27;20042;-72
2022/05/05 04:45:04;;;;;;;42.00;25.33;;;;;;;9.97;73.84;99490.91;8495017;27;20114;-72
2022/05/05 04:49:08;;;;;;;47.70;28.75;;;;;;;10.08;74.38;99492.34;8504987;27;20116;-72
2022/05/05 04:53:08;;;;;;;52.25;31.08;;;;;;;10.19;74.56;99499.22;8460104;27;20549;-72
2022/05/05 04:57:09;;;;;;;53.90;31.63;;;;;;;10.31;74.67;99491.41;8459000;27;20092;-72
2022/05/05 05:01:10;;;;;;;51.80;31.45;;;;;;;10.40;74.79;99495.06;8505034;27;20472;-72
2022/05/05 05:05:11;;;;;;;62.03;33.75;;;;;;;10.48;74.82;99491.66;8455155;27;20035;-72
2022/05/05 05:09:12;;;;;;;54.97;34.83;;;;;;;10.58;75.06;99496.84;8513760;27;20549;-72
2022/05/05 05:13:13;;;;;;;55.45;33.25;;;;;;;10.68;74.57;99495.09;8428230;27;20040;-72
2022/05/05 05:17:15;;;;;;;54.00;34.15;;;;;;;10.80;75.07;99508.88;8429069;28;20161;-72
2022/05/05 05:21:16;;;;;;;53.25;33.85;;;;;;;10.89;74.68;99501.69;8428528;27;20052;-72
2022/05/05 05:25:17;;;;;;;59.97;34.60;;;;;;;10.97;74.77;99499.06;8424841;27;20127;-72
2022/05/05 05:29:18;;;;;;;62.15;37.75;;;;;;;11.09;74.50;99501.28;8428284;27;20051;-72
2022/05/05 05:33:19;;;;;;;63.38;38.03;;;;;;;11.19;74.37;99501.06;8423627;28;20068;-72
2022/05/05 05:37:20;;;;;;;64.90;38.08;;;;;;;11.26;74.43;99498.72;8422661;28;20050;-72
2022/05/05 05:41:21;;;;;;;72.93;37.17;;;;;;;11.33;74.40;99509.94;8421912;28;20438;-72
2022/05/05 05:45:22;;;;;;;73.05;39.10;;;;;;;11.42;74.27;99500.00;8498054;27;20599;-72
2022/05/05 05:49:23;;;;;;;67.32;39.70;;;;;;;11.58;74.25;99507.78;8500379;27;20047;-72
2022/05/05 05:53:24;;;;;;;65.60;40.33;;;;;;;11.66;74.07;99509.75;8527674;27;20039;-72
2022/05/05 05:57:25;;;;;;;71.13;39.85;;;;;;;11.79;73.85;99514.34;8529063;27;20141;-72
2022/05/05 06:03:53;;;;;;;61.65;39.72;;;;;;;11.89;73.81;99508.69;8529141;27;20133;-72
2022/05/05 06:05:47;;;;;;;64.85;39.20;;;;;;;12.01;73.74;99514.34;8529117;27;20050;-72
2022/05/05 06:09:48;;;;;;;65.18;38.53;;;;;;;12.17;73.25;99515.56;8505858;27;20047;-72
2022/05/05 06:13:49;;;;;;;66.82;40.75;;;;;;;12.32;72.93;99521.72;8495019;28;20440;-71
2022/05/05 06:17:51;;;;;;;76.25;39.28;;;;;;;12.46;73.12;99511.59;8494263;28;20054;-72
2022/05/05 06:21:51;;;;;;;70.63;40.03;;;;;;;12.62;72.45;99515.50;8494391;28;20054;-72
2022/05/05 06:25:52;;;;;;;69.28;37.33;;;;;;;12.73;71.99;99516.84;8494760;27;20039;-72
2022/05/05 06:29:53;;;;;;;66.50;38.08;;;;;;;12.92;71.72;99514.66;8516237;27;20170;-72
2022/05/05 06:33:54;;;;;;;62.70;37.20;;;;;;;13.06;71.33;99518.03;8528434;27;20115;-72
2022/05/05 06:37:55;;;;;;;55.20;36.10;;;;;;;13.25;71.36;99527.88;8531050;27;20058;-72
2022/05/05 06:41:56;;;;;;;65.32;37.65;;;;;;;13.44;71.06;99520.22;8518839;27;20611;-72
2022/05/05 06:45:57;;;;;;;63.30;36.63;;;;;;;13.57;69.88;99519.31;8504005;27;20082;-72
2022/05/05 06:49:58;;;;;;;57.20;37.05;;;;;;;13.68;69.73;99520.59;8505530;27;20054;-72
2022/05/05 06:53:59;;;;;;;64.13;39.05;;;;;;;13.82;69.72;99525.84;8521354;27;20488;-72
2022/05/05 06:58:00;;;;;;;66.07;40.42;;;;;;;13.97;69.27;99528.06;8530976;27;20273;-73
2022/05/05 07:02:02;;;;;;;67.70;41.80;;;;;;;14.09;69.14;99525.50;8525559;27;20071;-72
2022/05/05 07:06:03;;;;;;;63.72;38.55;;;;;;;14.31;69.34;99538.13;8505999;27;20070;-72
2022/05/05 07:14:27;;;;;;;69.25;42.17;;;;;;;14.56;68.96;99534.56;8521139;27;20039;-72
2022/05/05 07:18:28;;;;;;;73.85;43.10;;;;;;;14.65;69.23;99543.47;8481343;27;20445;-73
2022/05/05 07:22:29;;;;;;;62.78;39.38;;;;;;;14.84;68.71;99555.91;8523305;27;20049;-72
2022/05/05 07:26:30;;;;;;;64.78;41.50;;;;;;;14.95;68.11;99546.25;8520660;27;20042;-72
2022/05/05 07:30:31;;;;;;;68.40;41.80;;;;;;;15.08;68.71;99551.47;8532783;27;20046;-73
2022/05/05 07:34:34;;;;;;;72.28;44.90;;;;;;;15.20;68.08;99553.50;8530588;27;20102;-71
2022/05/05 07:38:35;;;;;;;64.00;41.00;;;;;;;15.33;68.09;99552.47;8496727;27;20047;-73
2022/05/05 07:42:37;;;;;;;63.30;39.35;;;;;;;15.49;67.07;99545.31;8531433;27;20047;-72
2022/05/05 07:46:38;;;;;;;56.63;37.65;;;;;;;15.62;65.81;99548.94;8521218;27;20046;-72
2022/05/05 07:50:39;;;;;;;62.70;40.80;;;;;;;15.82;65.90;99558.25;8532529;27;20130;-72
2022/05/05 07:54:44;;;;;;;62.15;37.67;;;;;;;15.99;65.23;99553.47;8533275;27;20130;-73
2022/05/05 07:58:45;;;;;;;62.22;38.30;;;;;;;16.19;64.59;99557.28;8501915;27;20043;-73
2022/05/05 08:02:46;;;;;;;53.05;35.30;;;;;;;16.42;63.89;99572.16;8517829;27;20559;-73
2022/05/05 08:06:47;;;;;;;57.22;36.88;;;;;;;16.57;62.25;99567.19;8532491;27;20047;-72
2022/05/05 08:10:53;;;;;;;56.47;35.58;;;;;;;16.65;62.47;99563.63;8530876;27;20062;-73
2022/05/05 08:14:54;;;;;;;49.05;31.00;;;;;;;16.69;62.05;99564.53;8507540;27;20043;-74
2022/05/05 08:18:55;;;;;;;55.20;31.48;;;;;;;16.80;59.79;99566.47;8523600;27;20069;-72
2022/05/05 08:22:56;;;;;;;52.28;30.52;;;;;;;16.96;59.99;99569.34;8508108;27;20098;-73
2022/05/05 08:31:17;;;;;;;43.75;28.60;;;;;;;17.35;57.59;99575.25;8532115;27;20043;-73
2022/05/05 08:35:18;;;;;;;44.78;27.45;;;;;;;17.58;57.35;99573.66;8531766;27;20057;-73
2022/05/05 08:39:19;;;;;;;38.65;25.52;;;;;;;17.86;56.94;99569.09;8477618;27;20043;-72
2022/05/05 08:43:20;;;;;;;39.25;24.30;;;;;;;18.07;55.50;99566.97;8496176;27;20051;-72
2022/05/05 08:47:25;;;;;;;39.58;24.73;;;;;;;18.19;54.67;99570.81;8497251;27;20416;-73
2022/05/05 08:51:27;;;;;;;40.80;25.48;;;;;;;18.35;54.09;99568.88;8496796;27;20054;-73
2022/05/05 08:55:29;;;;;;;36.50;21.60;;;;;;;18.57;53.34;99571.09;8497117;27;20100;-72
2022/05/05 08:59:32;;;;;;;33.70;20.40;;;;;;;18.74;51.59;99570.75;8495271;27;20143;-72
2022/05/05 09:03:33;;;;;;;36.42;23.67;;;;;;;18.91;50.83;99570.44;8496778;27;20051;-72
2022/05/05 09:07:49;;;;;;;32.22;19.13;;;;;;;19.14;49.71;99572.56;8495801;27;20441;-73
2022/05/05 09:12:16;;;;;;;33.78;22.42;;;;;;;19.33;48.18;99569.88;8491406;27;20394;-73
2022/05/05 09:16:25;;;;;;;36.92;22.67;;;;;;;19.58;49.60;99571.28;8460888;28;20048;-73
2022/05/05 09:20:35;;;;;;;34.72;23.02;;;;;;;19.78;48.53;99564.66;8426256;28;20557;-73
2022/05/05 09:24:40;;;;;;;50.17;21.58;;;;;;;19.83;48.35;99567.13;8442551;28;20044;-73
2022/05/05 09:28:41;;;;;;;23.95;15.95;;;;;;;19.95;46.97;99573.63;8480880;27;20089;-73
2022/05/05 09:32:45;;;;;;;27.63;17.00;;;;;;;20.07;45.69;99576.25;8451157;27;20310;-73
2022/05/05 09:36:47;;;;;;;24.38;13.68;;;;;;;20.19;44.97;99573.38;8481617;27;20062;-73
2022/05/05 09:41:03;;;;;;;26.38;16.70;;;;;;;20.27;43.79;99575.09;8519533;27;20078;-73
2022/05/05 09:45:11;;;;;;;32.08;17.83;;;;;;;20.34;42.98;99569.78;8530436;27;20779;-73
2022/05/05 09:49:14;;;;;;;29.35;19.80;;;;;;;20.38;43.82;99565.16;8528031;27;20097;-73
2022/05/05 09:57:41;;;;;;;20.25;13.65;;;;;;;20.59;42.87;99570.25;8528923;27;20047;-73
2022/05/05 10:01:44;;;;;;;21.67;13.50;;;;;;;20.64;42.22;99567.19;8500344;27;20047;-73
2022/05/05 10:05:46;;;;;;;20.90;12.15;;;;;;;20.73;42.50;99569.72;8478573;27;20050;-73
2022/05/05 10:09:49;;;;;;;29.65;13.80;;;;;;;21.03;42.58;99567.91;8486495;27;20042;-72
2022/05/05 10:13:50;;;;;;;20.92;14.98;;;;;;;21.19;42.90;99571.34;8529721;27;20111;-72
2022/05/05 10:17:51;;;;;;;24.48;15.80;;;;;;;21.27;42.20;99573.03;8514935;27;20051;-72
2022/05/05 10:22:11;;;;;;;27.27;18.60;;;;;;;21.25;40.67;99566.31;8441405;28;20050;-72
2022/05/05 10:26:13;;;;;;;33.85;17.27;;;;;;;21.20;42.03;99561.94;8503405;27;20047;-72
2022/05/05 10:30:34;;;;;;;29.33;15.55;;;;;;;21.46;42.25;99563.91;8487841;27;20040;-73
2022/05/05 10:34:37;;;;;;;24.13;16.60;;;;;;;21.58;40.83;99566.41;8498327;27;20714;-73
2022/05/05 10:38:40;;;;;;;26.58;16.00;;;;;;;21.78;42.05;99558.88;8494268;27;20051;-73
2022/05/05 10:42:44;;;;;;;22.08;13.20;;;;;;;21.99;41.85;99548.16;8528150;27;20511;-72
2022/05/05 10:46:52;;;;;;;30.85;16.25;;;;;;;22.13;40.74;99548.34;8509985;27;20047;-73
2022/05/05 10:51:04;;;;;;;28.95;16.75;;;;;;;22.24;39.17;99543.75;8521696;27;20075;-73
2022/05/05 10:55:24;;;;;;;28.13;15.38;;;;;;;22.39;40.44;99538.41;8529297;27;20130;-73
2022/05/05 10:59:24;;;;;;;21.48;13.55;;;;;;;22.48;40.35;99541.63;8529123;27;20042;-73
2022/05/05 11:03:26;;;;;;;23.85;13.98;;;;;;;22.51;37.88;99535.38;8474331;27;20047;-72
2022/05/05 11:07:35;;;;;;;21.52;12.68;;;;;;;22.67;38.50;99535.94;8528905;27;20050;-73
2022/05/05 11:11:42;;;;;;;21.90;12.80;;;;;;;22.81;38.38;99522.31;8525140;27;20065;-73
2022/05/05 11:24:32;;;;;;;19.95;13.93;;;;;;;23.07;37.25;99524.09;8502011;27;20047;-73
2022/05/05 11:28:33;;;;;;;20.25;13.25;;;;;;;22.92;37.94;99517.69;8499998;27;20058;-72
2022/05/05 11:32:34;;;;;;;21.08;11.63;;;;;;;22.79;37.62;99519.16;8524057;27;20046;-73
2022/05/05 11:36:37;;;;;;;15.80;10.70;;;;;;;23.06;37.90;99517.81;8532885;27;20074;-73
2022/05/05 11:40:38;;;;;;;19.20;10.63;;;;;;;23.24;37.96;99522.66;8532831;27;20072;-73
2022/05/05 11:44:40;;;;;;;19.67;11.48;;;;;;;23.35;38.17;99518.03;8514402;27;20058;-73
2022/05/05 11:48:43;;;;;;;18.15;10.02;;;;;;;23.54;36.37;99521.31;8532796;27;20415;-72
2022/05/05 11:52:44;;;;;;;19.00;9.98;;;;;;;23.36;35.17;99514.09;8532459;27;20046;-72
2022/05/05 11:56:50;;;;;;;17.00;11.77;;;;;;;23.29;34.49;99508.53;8495494;27;20046;-72
2022/05/05 12:05:12;;;;;;;18.23;11.45;;;;;;;23.85;36.42;99514.38;8530348;27;20051;-72
2022/05/05 12:09:13;;;;;;;17.25;9.80;;;;;;;23.56;36.11;99518.19;8491314;27;20047;-73
2022/05/05 12:13:14;;;;;;;20.10;10.82;;;;;;;22.87;37.05;99503.50;8531989;27;20081;-72
2022/05/05 12:17:18;;;;;;;12.32;9.10;;;;;;;22.56;38.21;99513.03;8507675;27;20039;-73
2022/05/05 12:21:26;;;;;;;18.30;9.77;;;;;;;23.06;37.49;99506.00;8523795;27;20074;-72
2022/05/05 12:25:28;;;;;;;14.52;9.27;;;;;;;23.70;36.12;99501.69;8529686;27;20507;-73
2022/05/05 12:29:37;;;;;;;14.43;9.98;;;;;;;23.82;34.66;99515.16;8531428;27;20545;-74
2022/05/05 12:33:38;;;;;;;16.40;10.23;;;;;;;23.26;34.74;99509.31;8513380;27;20345;-72
2022/05/05 12:37:39;;;;;;;19.05;9.80;;;;;;;22.98;35.62;99505.16;8512124;27;20141;-73
2022/05/05 12:41:56;;;;;;;14.30;8.25;;;;;;;23.72;36.07;99493.84;8510480;27;20069;-73
2022/05/05 12:46:02;;;;;;;13.75;9.35;;;;;;;23.92;34.08;99497.84;8506027;27;20043;-72
2022/05/05 12:50:03;;;;;;;11.57;8.43;;;;;;;24.20;34.46;99494.44;8524092;27;20057;-72
2022/05/05 13:02:48;;;;;;;16.05;8.00;;;;;;;24.49;34.66;99487.00;8423789;28;20048;-73
2022/05/05 13:06:52;;;;;;;11.30;8.45;;;;;;;23.93;34.37;99488.41;8423973;28;20078;-73
2022/05/05 13:10:53;;;;;;;12.57;7.80;;;;;;;23.79;33.78;99482.84;8402388;28;20053;-73
2022/05/05 13:14:54;;;;;;;13.32;7.28;;;;;;;23.68;35.17;99482.00;8401741;28;20048;-73
2022/05/05 13:18:57;;;;;;;12.55;7.70;;;;;;;23.31;36.29;99484.13;8418910;28;20048;-73
2022/05/05 13:22:59;;;;;;;17.45;9.90;;;;;;;23.35;37.26;99490.47;8418811;28;20399;-73
2022/05/05 13:27:00;;;;;;;13.15;7.65;;;;;;;23.21;36.66;99484.88;8419708;28;20055;-72
2022/05/05 13:31:01;;;;;;;13.18;8.40;;;;;;;23.22;37.06;99480.91;8421203;28;20476;-73
2022/05/05 13:35:02;;;;;;;16.33;9.10;;;;;;;23.10;37.46;99491.09;8417304;28;20048;-72
2022/05/05 13:39:04;;;;;;;14.63;7.80;;;;;;;23.04;36.67;99492.63;8470285;27;20458;-72
2022/05/05 13:43:05;;;;;;;13.10;7.78;;;;;;;22.98;34.72;99499.66;8529072;27;20742;-72
2022/05/05 13:47:07;;;;;;;11.82;6.97;;;;;;;22.53;34.99;99511.81;8529189;27;20050;-72
2022/05/05 13:51:12;;;;;;;17.98;7.78;;;;;;;22.10;40.91;99516.06;8529725;27;20488;-73
2022/05/05 13:55:13;;;;;;;22.38;7.05;;;;;;;21.70;43.52;99518.69;8491732;27;20047;-72
2022/05/05 13:59:14;;;;;;;14.52;7.60;;;;;;;21.16;44.37;99522.63;8527892;27;20081;-73
2022/05/05 14:03:15;;;;;;;23.00;8.20;;;;;;;20.88;45.15;99527.63;8529074;27;20434;-73
2022/05/05 14:12:10;;;;;;;25.55;8.10;;;;;;;20.65;45.60;99531.16;8525079;27;20068;-73
2022/05/05 14:15:58;;;;;;;15.77;7.70;;;;;;;20.28;47.33;99532.81;8512578;27;20043;-72
2022/05/05 14:19:59;;;;;;;17.63;8.48;;;;;;;20.26;47.57;99546.06;8457795;28;20051;-72
2022/05/05 14:24:05;;;;;;;14.40;9.00;;;;;;;20.07;48.47;99548.84;8392683;28;20051;-74
2022/05/05 14:28:07;;;;;;;13.05;8.40;;;;;;;19.78;49.75;99581.13;8493958;28;20055;-72
2022/05/05 14:32:08;;;;;;;11.55;8.95;;;;;;;19.50;50.62;99613.38;8504727;27;20039;-72
2022/05/05 14:36:09;;;;;;;17.90;8.30;;;;;;;19.15;52.03;99640.63;8509311;27;20504;-72
2022/05/05 14:40:11;;;;;;;23.23;10.07;;;;;;;18.74;57.07;99641.91;8510570;27;20043;-72
2022/05/05 14:44:12;;;;;;;16.10;10.57;;;;;;;18.47;59.67;99648.13;8493758;27;20184;-72
2022/05/05 14:48:13;;;;;;;19.27;9.80;;;;;;;18.19;61.17;99652.81;8499879;27;20050;-72
2022/05/05 14:52:18;;;;;;;17.40;10.27;;;;;;;17.87;63.92;99658.06;8518905;27;20709;-73
2022/05/05 14:56:19;;;;;;;23.17;11.77;;;;;;;17.48;66.68;99666.97;8520339;27;20055;-72
2022/05/05 15:00:21;;;;;;;24.02;13.05;;;;;;;16.94;69.31;99658.91;8437053;28;20523;-72
2022/05/05 15:04:22;;;;;;;21.35;13.27;;;;;;;16.81;70.80;99654.56;8460449;28;20696;-72
2022/05/05 15:08:23;;;;;;;18.63;12.48;;;;;;;16.72;72.71;99656.56;8426063;28;20067;-73
2022/05/05 15:12:24;;;;;;;18.48;12.40;;;;;;;16.45;73.93;99644.25;8438206;27;20051;-73
2022/05/05 15:16:25;;;;;;;18.48;12.23;;;;;;;16.25;76.50;99648.59;8427540;28;20437;-72
2022/05/05 15:20:26;;;;;;;18.38;12.90;;;;;;;16.04;77.45;99653.25;8434029;27;20202;-72
2022/05/05 15:24:27;;;;;;;21.52;13.85;;;;;;;15.97;77.10;99642.88;8434945;28;20117;-72
2022/05/05 15:28:28;;;;;;;20.00;12.40;;;;;;;15.96;77.76;99645.97;8402572;28;20051;-72
2022/05/05 15:32:30;;;;;;;16.02;11.88;;;;;;;16.01;76.99;99637.59;8533261;27;20053;-72
2022/05/05 15:36:31;;;;;;;19.42;12.18;;;;;;;16.05;77.20;99649.41;8497325;27;20125;-72
2022/05/05 15:40:32;;;;;;;16.65;12.32;;;;;;;16.18;76.14;99648.34;8517940;27;20520;-72
2022/05/05 15:44:33;;;;;;;18.48;12.00;;;;;;;16.36;76.98;99633.44;8509230;27;20043;-72
2022/05/05 15:48:35;;;;;;;23.40;12.43;;;;;;;16.47;76.39;99639.28;8496016;27;20054;-72
2022/05/05 15:52:37;;;;;;;18.27;12.32;;;;;;;16.78;76.22;99627.94;8496175;27;20552;-72
2022/05/05 15:56:39;;;;;;;18.05;13.07;;;;;;;17.03;75.34;99624.13;8517320;27;20676;-72
2022/05/05 16:00:39;;;;;;;19.20;11.75;;;;;;;17.29;74.80;99621.88;8495322;27;20062;-72
2022/05/05 16:04:44;;;;;;;17.30;12.77;;;;;;;17.49;73.92;99619.41;8504924;27;20694;-72
2022/05/05 16:08:45;;;;;;;17.83;13.38;;;;;;;17.63;74.17;99608.94;8477426;27;20079;-72
2022/05/05 16:12:47;;;;;;;21.60;17.08;;;;;;;17.61;74.69;99608.47;8422326;28;20048;-72
2022/05/05 16:16:48;;;;;;;17.73;14.35;;;;;;;17.76;74.16;99618.72;8423828;28;20052;-72
2022/05/05 16:20:49;;;;;;;18.73;13.10;;;;;;;17.80;73.58;99619.63;8383366;28;20048;-72
2022/05/05 16:33:40;;;;;;;15.10;12.18;;;;;;;18.14;72.57;99618.28;8316793;28;20057;-72
2022/05/05 16:37:42;;;;;;;16.63;13.20;;;;;;;18.04;73.56;99630.50;8349391;28;20074;-72
2022/05/05 16:41:48;;;;;;;18.10;13.05;;;;;;;17.98;74.58;99637.34;8356673;28;20037;-72
2022/05/05 16:45:49;;;;;;;17.33;14.00;;;;;;;17.75;75.51;99649.91;8373968;28;20053;-72
2022/05/05 16:49:50;;;;;;;18.75;14.13;;;;;;;17.56;75.55;99641.47;8378236;28;20049;-72
2022/05/05 16:53:51;;;;;;;21.80;14.65;;;;;;;17.49;76.43;99646.72;8383605;28;20055;-72
2022/05/05 16:57:52;;;;;;;21.42;13.75;;;;;;;17.20;76.98;99651.22;8374156;28;20049;-72
2022/05/05 17:01:53;;;;;;;20.52;12.80;;;;;;;17.21;76.83;99658.28;8387199;28;20049;-72
2022/05/05 17:05:54;;;;;;;22.13;15.35;;;;;;;17.11;76.75;99658.72;8363257;28;20040;-72
2022/05/05 17:09:56;;;;;;;25.25;16.60;;;;;;;17.00;77.38;99652.09;8411347;27;20065;-72
2022/05/05 17:13:58;;;;;;;18.90;13.98;;;;;;;16.92;77.24;99646.75;8435469;27;20051;-73
2022/05/05 17:17:59;;;;;;;35.10;18.60;;;;;;;16.90;76.60;99647.09;8493365;27;20452;-72
2022/05/05 17:22:00;;;;;;;51.72;32.90;;;;;;;16.85;76.69;99650.03;8472750;27;20050;-72
2022/05/05 17:26:01;;;;;;;44.45;31.33;;;;;;;16.71;77.08;99646.78;8484888;27;20047;-71
2022/05/05 17:30:04;;;;;;;23.65;14.50;;;;;;;16.70;77.93;99648.75;8479872;27;20504;-72
2022/05/05 17:34:05;;;;;;;32.63;17.95;;;;;;;16.59;77.88;99647.56;8478942;27;20412;-72
2022/05/05 17:38:06;;;;;;;73.88;53.60;;;;;;;16.29;79.15;99644.09;8462549;27;20054;-72
2022/05/05 17:42:08;;;;;;;66.20;46.95;;;;;;;16.18;79.41;99645.59;8479737;27;20122;-72
2022/05/05 17:50:34;;;;;;;23.48;17.27;;;;;;;16.05;79.86;99643.97;8484175;27;20050;-72
2022/05/05 17:54:35;;;;;;;30.45;19.27;;;;;;;15.96;80.03;99648.69;8473648;27;20047;-72
2022/05/05 17:58:36;;;;;;;44.00;23.42;;;;;;;15.88;80.64;99646.78;8493323;27;20175;-72
2022/05/05 18:02:37;;;;;;;21.95;17.77;;;;;;;15.79;80.90;99646.06;8474853;27;20155;-70
2022/05/05 18:06:39;;;;;;;26.42;19.88;;;;;;;15.70;81.08;99642.59;8474971;27;20154;-71
2022/05/05 18:10:40;;;;;;;20.90;16.90;;;;;;;15.61;81.24;99640.72;8494180;27;20080;-71
2022/05/05 18:14:43;;;;;;;21.65;18.55;;;;;;;15.55;81.53;99641.22;8493992;27;20066;-71
2022/05/05 18:18:46;;;;;;;17.92;13.93;;;;;;;15.50;81.60;99642.19;8492654;28;20130;-72
2022/05/05 18:22:47;;;;;;;17.75;14.32;;;;;;;15.42;81.97;99648.47;8494027;27;20067;-71
2022/05/05 18:26:48;;;;;;;19.65;13.63;;;;;;;15.27;82.12;99646.31;8493889;27;20130;-72
2022/05/05 18:30:53;;;;;;;17.83;13.73;;;;;;;15.20;83.18;99652.25;8493948;27;20074;-71
2022/05/05 18:34:57;;;;;;;21.38;15.60;;;;;;;15.06;84.03;99661.72;8477236;27;20058;-72
2022/05/05 18:38:58;;;;;;;19.42;15.00;;;;;;;14.86;85.91;99676.03;8509348;27;20077;-71
2022/05/05 18:42:59;;;;;;;23.33;15.57;;;;;;;14.79;86.23;99680.03;8515246;27;20486;-71
2022/05/05 18:47:00;;;;;;;20.40;16.17;;;;;;;14.84;85.70;99675.53;8461621;27;20489;-71
2022/05/05 18:51:01;;;;;;;21.83;15.85;;;;;;;14.86;85.48;99679.53;8518753;27;20049;-72
2022/05/05 18:55:03;;;;;;;25.02;16.33;;;;;;;14.88;85.27;99687.38;8484276;27;20047;-71
2022/05/05 18:59:04;;;;;;;23.20;18.80;;;;;;;14.89;85.17;99683.53;8512757;27;20047;-72
2022/05/05 19:03:05;;;;;;;26.45;18.60;;;;;;;14.89;85.51;99678.09;8506550;27;20054;-72
2022/05/05 19:07:06;;;;;;;24.95;18.10;;;;;;;14.90;85.29;99679.69;8498894;27;20429;-71
2022/05/05 19:11:08;;;;;;;23.33;18.75;;;;;;;14.86;85.70;99689.63;8477763;27;20043;-71
2022/05/05 19:15:09;;;;;;;22.65;18.27;;;;;;;14.82;85.79;99696.81;8490553;27;20050;-72
2022/05/05 19:19:11;;;;;;;23.45;17.77;;;;;;;14.74;86.28;99704.66;8522889;27;20039;-72
2022/05/05 19:23:12;;;;;;;22.15;17.85;;;;;;;14.72;86.09;99706.91;8505141;27;20039;-71
2022/05/05 19:27:13;;;;;;;21.42;16.40;;;;;;;14.74;85.63;99715.53;8510970;27;20133;-71
2022/05/05 19:31:14;;;;;;;20.40;15.15;;;;;;;14.70;85.40;99720.00;8463711;27;20058;-72
2022/05/05 19:35:16;;;;;;;20.75;15.65;;;;;;;14.68;85.20;99722.25;8489927;27;20415;-71
2022/05/05 19:39:18;;;;;;;33.00;20.75;;;;;;;14.66;85.17;99724.50;8510428;27;20071;-72
2022/05/05 19:43:19;;;;;;;36.30;21.25;;;;;;;14.64;85.07;99732.19;8443411;27;20252;-71